sensor_id;sensor_type;location;lat;lon;timestamp;temperature;humidity
14210;DHT22;7188;56.070;12.698;2023-05-07T00:02:21;2.30;12.10
14210;DHT22;7188;56.070;12.698;2023-05-07T00:04:48;2.30;18.30
14210;DHT22;7188;56.070;12.698;2023-05-07T00:07:14;2.30;25.00
14210;DHT22;7188;56.070;12.698;2023-05-07T00:09:40;2.30;38.00
14210;DHT22;7188;56.070;12.698;2023-05-07T00:12:06;2.30;41.60
14210;DHT22;7188;56.070;12.698;2023-05-07T00:14:31;2.30;47.70
14210;DHT22;7188;56.070;12.698;2023-05-07T00:16:57;2.20;59.80
14210;DHT22;7188;56.070;12.698;2023-05-07T00:19:22;2.20;66.20
14210;DHT22;7188;56.070;12.698;2023-05-07T00:21:48;2.20;83.30
14210;DHT22;7188;56.070;12.698;2023-05-07T00:24:14;2.20;80.10
14210;DHT22;7188;56.070;12.698;2023-05-07T00:26:39;2.20;90.70
14210;DHT22;7188;56.070;12.698;2023-05-07T00:29:05;2.10;93.90
14210;DHT22;7188;56.070;12.698;2023-05-07T00:31:31;2.10;95.90
14210;DHT22;7188;56.070;12.698;2023-05-07T00:33:56;2.10;99.90
14210;DHT22;7188;56.070;12.698;2023-05-07T00:36:22;2.10;99.90
14210;DHT22;7188;56.070;12.698;2023-05-07T00:38:47;2.10;99.90
14210;DHT22;7188;56.070;12.698;2023-05-07T00:41:13;2.10;99.90
14210;DHT22;7188;56.070;12.698;2023-05-07T00:43:39;2.00;99.90
14210;DHT22;7188;56.070;12.698;2023-05-07T00:46:04;2.00;99.90
14210;DHT22;7188;56.070;12.698;2023-05-07T00:48:30;2.00;99.90
14210;DHT22;7188;56.070;12.698;2023-05-07T00:50:57;2.00;99.90
14210;DHT22;7188;56.070;12.698;2023-05-07T00:53:22;1.90;99.90
14210;DHT22;7188;56.070;12.698;2023-05-07T00:55:48;1.90;99.90
14210;DHT22;7188;56.070;12.698;2023-05-07T00:58:21;1.90;99.90
14210;DHT22;7188;56.070;12.698;2023-05-07T01:00:46;1.90;99.90
14210;DHT22;7188;56.070;12.698;2023-05-07T01:03:12;1.90;99.90
14210;DHT22;7188;56.070;12.698;2023-05-07T01:05:38;1.90;99.90
14210;DHT22;7188;56.070;12.698;2023-05-07T01:08:04;1.80;99.90
14210;DHT22;7188;56.070;12.698;2023-05-07T01:10:30;1.80;99.90
14210;DHT22;7188;56.070;12.698;2023-05-07T01:12:57;1.80;99.90
14210;DHT22;7188;56.070;12.698;2023-05-07T01:15:23;1.80;99.90
14210;DHT22;7188;56.070;12.698;2023-05-07T01:17:48;1.80;99.90
14210;DHT22;7188;56.070;12.698;2023-05-07T01:20:14;1.70;99.90
14210;DHT22;7188;56.070;12.698;2023-05-07T01:22:42;1.70;99.90
14210;DHT22;7188;56.070;12.698;2023-05-07T01:25:08;1.70;99.90
14210;DHT22;7188;56.070;12.698;2023-05-07T01:27:34;1.70;1.00
14210;DHT22;7188;56.070;12.698;2023-05-07T01:30:02;1.70;99.90
14210;DHT22;7188;56.070;12.698;2023-05-07T01:32:37;1.70;1.00
14210;DHT22;7188;56.070;12.698;2023-05-07T01:35:05;1.70;1.00
14210;DHT22;7188;56.070;12.698;2023-05-07T01:37:33;1.60;1.00
14210;DHT22;7188;56.070;12.698;2023-05-07T01:39:59;1.60;1.00
14210;DHT22;7188;56.070;12.698;2023-05-07T01:42:25;1.60;1.00
14210;DHT22;7188;56.070;12.698;2023-05-07T01:44:51;1.60;1.00
14210;DHT22;7188;56.070;12.698;2023-05-07T01:47:17;1.60;1.00
14210;DHT22;7188;56.070;12.698;2023-05-07T01:49:43;1.60;1.00
14210;DHT22;7188;56.070;12.698;2023-05-07T01:52:10;1.50;1.00
14210;DHT22;7188;56.070;12.698;2023-05-07T01:54:37;1.50;1.00
14210;DHT22;7188;56.070;12.698;2023-05-07T01:57:02;1.50;1.00
14210;DHT22;7188;56.070;12.698;2023-05-07T01:59:28;1.50;1.00
14210;DHT22;7188;56.070;12.698;2023-05-07T02:01:54;1.50;1.00
14210;DHT22;7188;56.070;12.698;2023-05-07T02:04:19;1.40;1.00
14210;DHT22;7188;56.070;12.698;2023-05-07T02:06:45;1.50;1.00
14210;DHT22;7188;56.070;12.698;2023-05-07T02:09:11;1.50;1.00
14210;DHT22;7188;56.070;12.698;2023-05-07T02:11:37;1.50;1.00
14210;DHT22;7188;56.070;12.698;2023-05-07T02:14:02;1.50;1.00
14210;DHT22;7188;56.070;12.698;2023-05-07T02:16:28;1.50;1.00
14210;DHT22;7188;56.070;12.698;2023-05-07T02:18:54;1.50;1.00
14210;DHT22;7188;56.070;12.698;2023-05-07T02:21:20;1.50;1.00
14210;DHT22;7188;56.070;12.698;2023-05-07T02:23:45;1.40;1.00
14210;DHT22;7188;56.070;12.698;2023-05-07T02:26:11;1.40;1.00
14210;DHT22;7188;56.070;12.698;2023-05-07T02:28:37;1.50;23.10
14210;DHT22;7188;56.070;12.698;2023-05-07T02:31:03;1.40;19.80
14210;DHT22;7188;56.070;12.698;2023-05-07T02:33:29;1.40;1.00
14210;DHT22;7188;56.070;12.698;2023-05-07T02:35:54;1.40;15.90
14210;DHT22;7188;56.070;12.698;2023-05-07T02:38:20;1.40;42.70
14210;DHT22;7188;56.070;12.698;2023-05-07T02:40:46;1.40;41.40
14210;DHT22;7188;56.070;12.698;2023-05-07T02:43:11;1.40;81.10
14210;DHT22;7188;56.070;12.698;2023-05-07T02:45:37;1.40;75.10
14210;DHT22;7188;56.070;12.698;2023-05-07T02:48:03;1.50;78.70
14210;DHT22;7188;56.070;12.698;2023-05-07T02:50:29;1.50;84.10
14210;DHT22;7188;56.070;12.698;2023-05-07T02:53:07;1.50;87.20
14210;DHT22;7188;56.070;12.698;2023-05-07T02:55:33;1.50;79.60
14210;DHT22;7188;56.070;12.698;2023-05-07T02:57:59;1.40;90.70
14210;DHT22;7188;56.070;12.698;2023-05-07T03:00:24;1.40;99.90
14210;DHT22;7188;56.070;12.698;2023-05-07T03:02:50;1.40;99.90
14210;DHT22;7188;56.070;12.698;2023-05-07T03:05:16;1.40;99.90
14210;DHT22;7188;56.070;12.698;2023-05-07T03:08:04;1.30;99.90
14210;DHT22;7188;56.070;12.698;2023-05-07T03:10:30;1.40;99.90
14210;DHT22;7188;56.070;12.698;2023-05-07T03:12:55;1.30;99.90
14210;DHT22;7188;56.070;12.698;2023-05-07T03:15:21;1.40;99.90
14210;DHT22;7188;56.070;12.698;2023-05-07T03:17:48;1.40;99.90
14210;DHT22;7188;56.070;12.698;2023-05-07T03:20:13;1.40;99.90
14210;DHT22;7188;56.070;12.698;2023-05-07T03:22:39;1.40;99.90
14210;DHT22;7188;56.070;12.698;2023-05-07T03:25:06;1.40;99.90
14210;DHT22;7188;56.070;12.698;2023-05-07T03:27:32;1.40;99.90
14210;DHT22;7188;56.070;12.698;2023-05-07T03:29:57;1.40;99.90
14210;DHT22;7188;56.070;12.698;2023-05-07T03:32:23;1.40;99.90
14210;DHT22;7188;56.070;12.698;2023-05-07T03:34:49;1.40;91.30
14210;DHT22;7188;56.070;12.698;2023-05-07T03:37:14;1.40;95.00
14210;DHT22;7188;56.070;12.698;2023-05-07T03:39:40;1.40;85.70
14210;DHT22;7188;56.070;12.698;2023-05-07T03:42:06;1.40;35.70
14210;DHT22;7188;56.070;12.698;2023-05-07T03:44:32;1.40;33.10
14210;DHT22;7188;56.070;12.698;2023-05-07T03:46:58;1.40;31.70
14210;DHT22;7188;56.070;12.698;2023-05-07T03:49:23;1.40;17.90
14210;DHT22;7188;56.070;12.698;2023-05-07T03:51:49;1.40;44.40
14210;DHT22;7188;56.070;12.698;2023-05-07T03:54:15;1.40;18.00
14210;DHT22;7188;56.070;12.698;2023-05-07T03:56:40;1.40;26.70
14210;DHT22;7188;56.070;12.698;2023-05-07T03:59:06;1.40;16.30
14210;DHT22;7188;56.070;12.698;2023-05-07T04:01:31;1.40;12.70
14210;DHT22;7188;56.070;12.698;2023-05-07T04:03:57;1.40;24.70
14210;DHT22;7188;56.070;12.698;2023-05-07T04:06:23;1.40;11.50
14210;DHT22;7188;56.070;12.698;2023-05-07T04:08:48;1.40;8.00
14210;DHT22;7188;56.070;12.698;2023-05-07T04:11:14;1.50;1.00
14210;DHT22;7188;56.070;12.698;2023-05-07T04:13:39;1.50;1.00
14210;DHT22;7188;56.070;12.698;2023-05-07T04:16:05;1.60;1.00
14210;DHT22;7188;56.070;12.698;2023-05-07T04:18:31;1.70;1.00
14210;DHT22;7188;56.070;12.698;2023-05-07T04:20:57;1.80;1.00
14210;DHT22;7188;56.070;12.698;2023-05-07T04:23:23;1.90;1.00
14210;DHT22;7188;56.070;12.698;2023-05-07T04:25:48;2.10;1.00
14210;DHT22;7188;56.070;12.698;2023-05-07T04:28:14;2.30;1.00
14210;DHT22;7188;56.070;12.698;2023-05-07T04:30:39;2.40;1.00
14210;DHT22;7188;56.070;12.698;2023-05-07T04:33:06;2.60;1.00
14210;DHT22;7188;56.070;12.698;2023-05-07T04:35:32;2.80;99.90
14210;DHT22;7188;56.070;12.698;2023-05-07T04:37:58;3.10;99.90
14210;DHT22;7188;56.070;12.698;2023-05-07T04:40:42;3.40;99.90
14210;DHT22;7188;56.070;12.698;2023-05-07T04:43:08;3.70;99.90
14210;DHT22;7188;56.070;12.698;2023-05-07T04:45:37;3.80;99.90
14210;DHT22;7188;56.070;12.698;2023-05-07T04:48:05;3.90;99.90
14210;DHT22;7188;56.070;12.698;2023-05-07T04:50:31;4.00;79.50
14210;DHT22;7188;56.070;12.698;2023-05-07T04:52:57;4.10;82.70
14210;DHT22;7188;56.070;12.698;2023-05-07T04:55:22;4.10;38.70
14210;DHT22;7188;56.070;12.698;2023-05-07T04:57:48;4.20;53.50
14210;DHT22;7188;56.070;12.698;2023-05-07T05:00:14;4.30;10.90
14210;DHT22;7188;56.070;12.698;2023-05-07T05:02:40;4.30;11.80
14210;DHT22;7188;56.070;12.698;2023-05-07T05:05:06;4.40;1.00
14210;DHT22;7188;56.070;12.698;2023-05-07T05:07:32;4.60;1.00
14210;DHT22;7188;56.070;12.698;2023-05-07T05:09:58;4.80;1.00
14210;DHT22;7188;56.070;12.698;2023-05-07T05:12:24;5.00;1.00
14210;DHT22;7188;56.070;12.698;2023-05-07T05:14:50;5.10;1.00
14210;DHT22;7188;56.070;12.698;2023-05-07T05:17:15;5.20;1.00
14210;DHT22;7188;56.070;12.698;2023-05-07T05:19:41;5.20;1.00
14210;DHT22;7188;56.070;12.698;2023-05-07T05:22:06;5.40;1.00
14210;DHT22;7188;56.070;12.698;2023-05-07T05:24:32;5.50;1.00
14210;DHT22;7188;56.070;12.698;2023-05-07T05:26:58;5.60;1.00
14210;DHT22;7188;56.070;12.698;2023-05-07T05:29:26;5.70;1.00
14210;DHT22;7188;56.070;12.698;2023-05-07T05:31:52;6.00;1.00
14210;DHT22;7188;56.070;12.698;2023-05-07T05:34:17;6.30;1.00
14210;DHT22;7188;56.070;12.698;2023-05-07T05:36:45;6.20;1.00
14210;DHT22;7188;56.070;12.698;2023-05-07T05:39:11;6.40;1.00
14210;DHT22;7188;56.070;12.698;2023-05-07T05:41:38;6.60;1.00
14210;DHT22;7188;56.070;12.698;2023-05-07T05:44:03;6.60;1.00
14210;DHT22;7188;56.070;12.698;2023-05-07T05:46:29;6.60;1.00
14210;DHT22;7188;56.070;12.698;2023-05-07T05:48:55;6.80;1.00
14210;DHT22;7188;56.070;12.698;2023-05-07T05:51:21;6.70;1.00
14210;DHT22;7188;56.070;12.698;2023-05-07T05:53:47;6.80;1.00
14210;DHT22;7188;56.070;12.698;2023-05-07T05:56:12;7.00;1.00
14210;DHT22;7188;56.070;12.698;2023-05-07T05:58:38;7.10;1.00
14210;DHT22;7188;56.070;12.698;2023-05-07T06:01:04;7.20;1.00
14210;DHT22;7188;56.070;12.698;2023-05-07T06:03:30;7.30;1.00
14210;DHT22;7188;56.070;12.698;2023-05-07T06:05:57;7.50;1.00
14210;DHT22;7188;56.070;12.698;2023-05-07T06:08:23;7.70;1.00
14210;DHT22;7188;56.070;12.698;2023-05-07T06:10:48;7.90;1.00
14210;DHT22;7188;56.070;12.698;2023-05-07T06:13:14;7.90;1.00
14210;DHT22;7188;56.070;12.698;2023-05-07T06:15:40;8.10;1.00
14210;DHT22;7188;56.070;12.698;2023-05-07T06:18:05;8.30;1.00
14210;DHT22;7188;56.070;12.698;2023-05-07T06:20:31;8.30;1.00
14210;DHT22;7188;56.070;12.698;2023-05-07T06:22:56;8.60;1.00
14210;DHT22;7188;56.070;12.698;2023-05-07T06:25:22;8.80;1.00
14210;DHT22;7188;56.070;12.698;2023-05-07T06:27:48;9.00;1.00
14210;DHT22;7188;56.070;12.698;2023-05-07T06:30:14;9.20;1.00
14210;DHT22;7188;56.070;12.698;2023-05-07T06:32:40;9.50;1.00
14210;DHT22;7188;56.070;12.698;2023-05-07T06:35:06;9.40;1.00
14210;DHT22;7188;56.070;12.698;2023-05-07T06:37:32;9.50;1.00
14210;DHT22;7188;56.070;12.698;2023-05-07T06:39:57;9.60;1.00
14210;DHT22;7188;56.070;12.698;2023-05-07T06:42:23;9.60;1.00
14210;DHT22;7188;56.070;12.698;2023-05-07T06:44:49;9.70;1.00
14210;DHT22;7188;56.070;12.698;2023-05-07T06:47:14;9.90;1.00
14210;DHT22;7188;56.070;12.698;2023-05-07T06:49:40;9.90;1.00
14210;DHT22;7188;56.070;12.698;2023-05-07T06:52:06;10.20;1.00
14210;DHT22;7188;56.070;12.698;2023-05-07T06:54:31;10.40;1.00
14210;DHT22;7188;56.070;12.698;2023-05-07T06:56:57;10.50;1.00
14210;DHT22;7188;56.070;12.698;2023-05-07T06:59:23;10.40;1.00
14210;DHT22;7188;56.070;12.698;2023-05-07T07:01:49;10.60;1.00
14210;DHT22;7188;56.070;12.698;2023-05-07T07:04:14;10.50;1.00
14210;DHT22;7188;56.070;12.698;2023-05-07T07:06:40;10.80;1.00
14210;DHT22;7188;56.070;12.698;2023-05-07T07:09:06;11.10;1.00
14210;DHT22;7188;56.070;12.698;2023-05-07T07:11:31;11.10;1.00
14210;DHT22;7188;56.070;12.698;2023-05-07T07:13:57;11.20;1.00
14210;DHT22;7188;56.070;12.698;2023-05-07T07:16:24;11.40;1.00
14210;DHT22;7188;56.070;12.698;2023-05-07T07:18:49;11.40;1.00
14210;DHT22;7188;56.070;12.698;2023-05-07T07:21:15;11.30;1.00
14210;DHT22;7188;56.070;12.698;2023-05-07T07:23:41;11.10;1.00
14210;DHT22;7188;56.070;12.698;2023-05-07T07:26:07;11.40;1.00
14210;DHT22;7188;56.070;12.698;2023-05-07T07:28:32;11.60;1.00
14210;DHT22;7188;56.070;12.698;2023-05-07T07:30:58;11.70;1.00
14210;DHT22;7188;56.070;12.698;2023-05-07T07:33:24;11.90;1.00
14210;DHT22;7188;56.070;12.698;2023-05-07T07:35:49;12.00;1.00
14210;DHT22;7188;56.070;12.698;2023-05-07T07:38:15;11.80;1.00
14210;DHT22;7188;56.070;12.698;2023-05-07T07:40:41;11.80;1.00
14210;DHT22;7188;56.070;12.698;2023-05-07T07:43:06;11.90;1.00
14210;DHT22;7188;56.070;12.698;2023-05-07T07:45:32;12.00;1.00
14210;DHT22;7188;56.070;12.698;2023-05-07T07:47:57;12.00;1.00
14210;DHT22;7188;56.070;12.698;2023-05-07T07:50:23;12.10;1.00
14210;DHT22;7188;56.070;12.698;2023-05-07T07:52:49;12.10;1.00
14210;DHT22;7188;56.070;12.698;2023-05-07T07:55:14;12.30;1.00
14210;DHT22;7188;56.070;12.698;2023-05-07T07:57:46;12.50;1.00
14210;DHT22;7188;56.070;12.698;2023-05-07T08:00:12;12.70;1.00
14210;DHT22;7188;56.070;12.698;2023-05-07T08:02:38;12.70;1.00
14210;DHT22;7188;56.070;12.698;2023-05-07T08:05:03;12.80;1.00
14210;DHT22;7188;56.070;12.698;2023-05-07T08:07:29;12.70;1.00
14210;DHT22;7188;56.070;12.698;2023-05-07T08:09:55;12.80;1.00
14210;DHT22;7188;56.070;12.698;2023-05-07T08:12:21;13.00;1.00
14210;DHT22;7188;56.070;12.698;2023-05-07T08:14:46;12.90;1.00
14210;DHT22;7188;56.070;12.698;2023-05-07T08:17:12;13.10;1.00
14210;DHT22;7188;56.070;12.698;2023-05-07T08:19:41;13.10;1.00
14210;DHT22;7188;56.070;12.698;2023-05-07T08:22:06;13.20;1.00
14210;DHT22;7188;56.070;12.698;2023-05-07T08:24:32;13.20;1.00
14210;DHT22;7188;56.070;12.698;2023-05-07T08:26:58;13.10;1.00
14210;DHT22;7188;56.070;12.698;2023-05-07T08:29:23;13.30;1.00
14210;DHT22;7188;56.070;12.698;2023-05-07T08:31:49;13.60;1.00
14210;DHT22;7188;56.070;12.698;2023-05-07T08:34:15;13.90;1.00
14210;DHT22;7188;56.070;12.698;2023-05-07T08:36:40;14.10;1.00
14210;DHT22;7188;56.070;12.698;2023-05-07T08:39:07;14.20;1.00
14210;DHT22;7188;56.070;12.698;2023-05-07T08:41:32;14.20;99.90
14210;DHT22;7188;56.070;12.698;2023-05-07T08:43:59;14.30;1.00
14210;DHT22;7188;56.070;12.698;2023-05-07T08:46:31;14.40;99.90
14210;DHT22;7188;56.070;12.698;2023-05-07T08:48:57;14.40;99.90
14210;DHT22;7188;56.070;12.698;2023-05-07T08:51:23;14.40;99.90
14210;DHT22;7188;56.070;12.698;2023-05-07T08:53:49;14.70;1.00
14210;DHT22;7188;56.070;12.698;2023-05-07T08:56:16;14.90;99.90
14210;DHT22;7188;56.070;12.698;2023-05-07T08:58:43;14.80;99.90
14210;DHT22;7188;56.070;12.698;2023-05-07T09:01:13;14.90;99.90
14210;DHT22;7188;56.070;12.698;2023-05-07T09:03:39;15.00;99.90
14210;DHT22;7188;56.070;12.698;2023-05-07T09:06:05;14.80;99.90
14210;DHT22;7188;56.070;12.698;2023-05-07T09:08:33;15.00;99.90
14210;DHT22;7188;56.070;12.698;2023-05-07T09:10:59;15.00;99.90
14210;DHT22;7188;56.070;12.698;2023-05-07T09:13:25;14.90;99.90
14210;DHT22;7188;56.070;12.698;2023-05-07T09:15:52;14.80;99.90
14210;DHT22;7188;56.070;12.698;2023-05-07T09:18:18;14.90;99.90
14210;DHT22;7188;56.070;12.698;2023-05-07T09:20:43;14.90;99.90
14210;DHT22;7188;56.070;12.698;2023-05-07T09:23:09;15.00;99.90
14210;DHT22;7188;56.070;12.698;2023-05-07T09:25:36;15.00;99.90
14210;DHT22;7188;56.070;12.698;2023-05-07T09:28:03;15.10;99.90
14210;DHT22;7188;56.070;12.698;2023-05-07T09:30:33;15.10;99.90
14210;DHT22;7188;56.070;12.698;2023-05-07T09:33:00;15.30;99.90
14210;DHT22;7188;56.070;12.698;2023-05-07T09:35:27;15.50;99.90
14210;DHT22;7188;56.070;12.698;2023-05-07T09:37:53;15.70;99.90
14210;DHT22;7188;56.070;12.698;2023-05-07T09:40:25;15.80;99.90
14210;DHT22;7188;56.070;12.698;2023-05-07T09:42:51;15.60;99.90
14210;DHT22;7188;56.070;12.698;2023-05-07T09:45:27;15.80;99.90
14210;DHT22;7188;56.070;12.698;2023-05-07T09:47:57;16.10;99.90
14210;DHT22;7188;56.070;12.698;2023-05-07T09:50:32;16.10;99.90
14210;DHT22;7188;56.070;12.698;2023-05-07T09:53:01;16.00;99.90
14210;DHT22;7188;56.070;12.698;2023-05-07T09:55:27;16.10;99.90
14210;DHT22;7188;56.070;12.698;2023-05-07T09:57:53;15.90;99.90
14210;DHT22;7188;56.070;12.698;2023-05-07T10:00:20;16.00;99.90
14210;DHT22;7188;56.070;12.698;2023-05-07T10:02:48;16.10;99.90
14210;DHT22;7188;56.070;12.698;2023-05-07T10:05:15;16.30;99.90
14210;DHT22;7188;56.070;12.698;2023-05-07T10:07:41;16.30;99.90
14210;DHT22;7188;56.070;12.698;2023-05-07T10:10:07;16.60;99.90
14210;DHT22;7188;56.070;12.698;2023-05-07T10:12:33;16.40;99.90
14210;DHT22;7188;56.070;12.698;2023-05-07T10:15:09;16.50;99.90
14210;DHT22;7188;56.070;12.698;2023-05-07T10:17:36;16.50;99.90
14210;DHT22;7188;56.070;12.698;2023-05-07T10:20:03;16.50;99.90
14210;DHT22;7188;56.070;12.698;2023-05-07T10:22:36;16.50;99.90
14210;DHT22;7188;56.070;12.698;2023-05-07T10:25:02;16.50;99.90
14210;DHT22;7188;56.070;12.698;2023-05-07T10:27:29;16.80;99.90
14210;DHT22;7188;56.070;12.698;2023-05-07T10:33:01;17.30;99.90
14210;DHT22;7188;56.070;12.698;2023-05-07T10:35:32;17.30;99.90
14210;DHT22;7188;56.070;12.698;2023-05-07T10:38:01;17.10;99.90
14210;DHT22;7188;56.070;12.698;2023-05-07T10:40:27;16.90;99.90
14210;DHT22;7188;56.070;12.698;2023-05-07T10:43:03;16.70;99.90
14210;DHT22;7188;56.070;12.698;2023-05-07T10:45:32;16.70;99.90
14210;DHT22;7188;56.070;12.698;2023-05-07T10:48:15;16.90;99.90
14210;DHT22;7188;56.070;12.698;2023-05-07T10:50:45;16.70;99.90
14210;DHT22;7188;56.070;12.698;2023-05-07T10:58:42;16.80;99.90
14210;DHT22;7188;56.070;12.698;2023-05-07T11:01:08;16.90;99.90
14210;DHT22;7188;56.070;12.698;2023-05-07T11:03:35;16.90;99.90
14210;DHT22;7188;56.070;12.698;2023-05-07T11:08:55;16.50;99.90
14210;DHT22;7188;56.070;12.698;2023-05-07T11:11:44;16.60;99.90
14210;DHT22;7188;56.070;12.698;2023-05-07T11:14:10;16.70;99.90
14210;DHT22;7188;56.070;12.698;2023-05-07T11:16:36;16.70;99.90
14210;DHT22;7188;56.070;12.698;2023-05-07T11:19:03;16.70;99.90
14210;DHT22;7188;56.070;12.698;2023-05-07T11:21:33;16.70;99.90
14210;DHT22;7188;56.070;12.698;2023-05-07T11:23:59;16.60;99.90
14210;DHT22;7188;56.070;12.698;2023-05-07T11:26:26;16.60;99.90
14210;DHT22;7188;56.070;12.698;2023-05-07T11:28:52;16.60;99.90
14210;DHT22;7188;56.070;12.698;2023-05-07T11:31:24;16.60;99.90
14210;DHT22;7188;56.070;12.698;2023-05-07T11:33:50;16.60;99.90
14210;DHT22;7188;56.070;12.698;2023-05-07T11:36:16;16.60;99.90
14210;DHT22;7188;56.070;12.698;2023-05-07T11:38:43;16.60;99.90
14210;DHT22;7188;56.070;12.698;2023-05-07T11:41:08;16.60;99.90
14210;DHT22;7188;56.070;12.698;2023-05-07T11:43:34;16.60;99.90
14210;DHT22;7188;56.070;12.698;2023-05-07T11:46:07;16.40;99.90
14210;DHT22;7188;56.070;12.698;2023-05-07T11:48:33;16.40;99.90
14210;DHT22;7188;56.070;12.698;2023-05-07T11:51:04;16.60;99.90
14210;DHT22;7188;56.070;12.698;2023-05-07T11:53:38;16.80;99.90
14210;DHT22;7188;56.070;12.698;2023-05-07T11:56:09;17.10;99.90
14210;DHT22;7188;56.070;12.698;2023-05-07T11:58:36;17.20;99.90
14210;DHT22;7188;56.070;12.698;2023-05-07T12:01:02;17.40;99.90
14210;DHT22;7188;56.070;12.698;2023-05-07T12:03:28;17.50;99.90
14210;DHT22;7188;56.070;12.698;2023-05-07T12:05:54;17.00;99.90
14210;DHT22;7188;56.070;12.698;2023-05-07T12:08:21;17.10;99.90
14210;DHT22;7188;56.070;12.698;2023-05-07T12:10:49;17.40;99.90
14210;DHT22;7188;56.070;12.698;2023-05-07T12:13:15;17.30;99.90
14210;DHT22;7188;56.070;12.698;2023-05-07T12:15:41;17.50;99.90
14210;DHT22;7188;56.070;12.698;2023-05-07T12:18:07;17.80;99.90
14210;DHT22;7188;56.070;12.698;2023-05-07T12:20:35;18.00;99.90
14210;DHT22;7188;56.070;12.698;2023-05-07T12:23:01;18.10;99.90
14210;DHT22;7188;56.070;12.698;2023-05-07T12:25:39;18.00;99.90
14210;DHT22;7188;56.070;12.698;2023-05-07T12:28:07;18.00;99.90
14210;DHT22;7188;56.070;12.698;2023-05-07T12:30:39;17.90;99.90
14210;DHT22;7188;56.070;12.698;2023-05-07T12:33:05;17.80;99.90
14210;DHT22;7188;56.070;12.698;2023-05-07T12:35:32;17.90;99.90
14210;DHT22;7188;56.070;12.698;2023-05-07T12:38:01;18.00;99.90
14210;DHT22;7188;56.070;12.698;2023-05-07T12:40:40;18.00;99.90
14210;DHT22;7188;56.070;12.698;2023-05-07T12:43:06;18.00;99.90
14210;DHT22;7188;56.070;12.698;2023-05-07T12:45:37;17.90;99.90
14210;DHT22;7188;56.070;12.698;2023-05-07T12:48:04;17.80;99.90
14210;DHT22;7188;56.070;12.698;2023-05-07T12:50:38;18.00;99.90
14210;DHT22;7188;56.070;12.698;2023-05-07T12:53:04;18.00;99.90
14210;DHT22;7188;56.070;12.698;2023-05-07T12:55:46;17.80;99.90
14210;DHT22;7188;56.070;12.698;2023-05-07T13:00:51;17.80;99.90
14210;DHT22;7188;56.070;12.698;2023-05-07T13:03:35;17.90;99.90
14210;DHT22;7188;56.070;12.698;2023-05-07T13:06:03;17.80;99.90
14210;DHT22;7188;56.070;12.698;2023-05-07T13:08:33;17.70;99.90
14210;DHT22;7188;56.070;12.698;2023-05-07T13:11:00;17.70;99.90
14210;DHT22;7188;56.070;12.698;2023-05-07T13:13:29;17.50;99.90
14210;DHT22;7188;56.070;12.698;2023-05-07T13:15:55;17.50;99.90
14210;DHT22;7188;56.070;12.698;2023-05-07T13:18:21;17.30;99.90
14210;DHT22;7188;56.070;12.698;2023-05-07T13:20:47;17.30;99.90
14210;DHT22;7188;56.070;12.698;2023-05-07T13:23:12;17.40;99.90
14210;DHT22;7188;56.070;12.698;2023-05-07T13:25:38;17.40;99.90
14210;DHT22;7188;56.070;12.698;2023-05-07T13:28:04;17.30;99.90
14210;DHT22;7188;56.070;12.698;2023-05-07T13:30:30;17.30;99.90
14210;DHT22;7188;56.070;12.698;2023-05-07T13:32:56;17.40;99.90
14210;DHT22;7188;56.070;12.698;2023-05-07T13:35:21;17.40;99.90
14210;DHT22;7188;56.070;12.698;2023-05-07T13:37:47;17.30;99.90
14210;DHT22;7188;56.070;12.698;2023-05-07T13:40:17;17.20;99.90
14210;DHT22;7188;56.070;12.698;2023-05-07T13:42:44;17.20;99.90
14210;DHT22;7188;56.070;12.698;2023-05-07T13:45:10;17.30;99.90
14210;DHT22;7188;56.070;12.698;2023-05-07T13:47:36;17.10;99.90
14210;DHT22;7188;56.070;12.698;2023-05-07T13:50:01;17.10;99.90
14210;DHT22;7188;56.070;12.698;2023-05-07T13:52:27;17.20;99.90
14210;DHT22;7188;56.070;12.698;2023-05-07T13:54:53;17.30;99.90
14210;DHT22;7188;56.070;12.698;2023-05-07T13:57:20;17.30;99.90
14210;DHT22;7188;56.070;12.698;2023-05-07T13:59:45;17.20;99.90
14210;DHT22;7188;56.070;12.698;2023-05-07T14:02:11;17.10;99.90
14210;DHT22;7188;56.070;12.698;2023-05-07T14:04:37;17.10;99.90
14210;DHT22;7188;56.070;12.698;2023-05-07T14:07:03;17.10;99.90
14210;DHT22;7188;56.070;12.698;2023-05-07T14:09:28;16.70;99.90
14210;DHT22;7188;56.070;12.698;2023-05-07T14:11:54;17.00;99.90
14210;DHT22;7188;56.070;12.698;2023-05-07T14:14:20;17.10;99.90
14210;DHT22;7188;56.070;12.698;2023-05-07T14:16:46;17.10;99.90
14210;DHT22;7188;56.070;12.698;2023-05-07T14:19:12;17.10;99.90
14210;DHT22;7188;56.070;12.698;2023-05-07T14:21:38;17.00;99.90
14210;DHT22;7188;56.070;12.698;2023-05-07T14:24:05;17.00;99.90
14210;DHT22;7188;56.070;12.698;2023-05-07T14:26:32;17.10;99.90
14210;DHT22;7188;56.070;12.698;2023-05-07T14:28:58;17.20;99.90
14210;DHT22;7188;56.070;12.698;2023-05-07T14:31:24;17.20;99.90
14210;DHT22;7188;56.070;12.698;2023-05-07T14:33:50;17.20;99.90
14210;DHT22;7188;56.070;12.698;2023-05-07T14:36:17;17.00;99.90
14210;DHT22;7188;56.070;12.698;2023-05-07T14:38:43;16.90;99.90
14210;DHT22;7188;56.070;12.698;2023-05-07T14:41:08;16.90;99.90
14210;DHT22;7188;56.070;12.698;2023-05-07T14:43:34;16.90;99.90
14210;DHT22;7188;56.070;12.698;2023-05-07T14:46:00;16.90;99.90
14210;DHT22;7188;56.070;12.698;2023-05-07T14:48:25;16.70;99.90
14210;DHT22;7188;56.070;12.698;2023-05-07T14:50:51;16.40;99.90
14210;DHT22;7188;56.070;12.698;2023-05-07T14:53:16;16.40;99.90
14210;DHT22;7188;56.070;12.698;2023-05-07T14:55:42;16.50;99.90
14210;DHT22;7188;56.070;12.698;2023-05-07T14:58:08;16.60;99.90
14210;DHT22;7188;56.070;12.698;2023-05-07T15:00:34;16.60;99.90
14210;DHT22;7188;56.070;12.698;2023-05-07T15:03:09;16.60;99.90
14210;DHT22;7188;56.070;12.698;2023-05-07T15:05:36;16.60;99.90
14210;DHT22;7188;56.070;12.698;2023-05-07T15:08:02;16.60;99.90
14210;DHT22;7188;56.070;12.698;2023-05-07T15:10:28;16.70;99.90
14210;DHT22;7188;56.070;12.698;2023-05-07T15:12:53;16.80;99.90
14210;DHT22;7188;56.070;12.698;2023-05-07T15:15:19;16.90;99.90
14210;DHT22;7188;56.070;12.698;2023-05-07T15:17:45;17.00;99.90
14210;DHT22;7188;56.070;12.698;2023-05-07T15:20:11;16.90;99.90
14210;DHT22;7188;56.070;12.698;2023-05-07T15:22:36;16.70;99.90
14210;DHT22;7188;56.070;12.698;2023-05-07T15:25:03;16.70;99.90
14210;DHT22;7188;56.070;12.698;2023-05-07T15:27:30;16.70;99.90
14210;DHT22;7188;56.070;12.698;2023-05-07T15:29:56;16.90;99.90
14210;DHT22;7188;56.070;12.698;2023-05-07T15:32:22;16.90;99.90
14210;DHT22;7188;56.070;12.698;2023-05-07T15:34:47;16.90;99.90
14210;DHT22;7188;56.070;12.698;2023-05-07T15:37:13;16.80;99.90
14210;DHT22;7188;56.070;12.698;2023-05-07T15:39:39;16.80;99.90
14210;DHT22;7188;56.070;12.698;2023-05-07T15:42:05;16.70;99.90
14210;DHT22;7188;56.070;12.698;2023-05-07T15:44:30;16.80;99.90
14210;DHT22;7188;56.070;12.698;2023-05-07T15:46:58;16.80;99.90
14210;DHT22;7188;56.070;12.698;2023-05-07T15:49:25;16.90;99.90
14210;DHT22;7188;56.070;12.698;2023-05-07T15:51:50;16.80;99.90
14210;DHT22;7188;56.070;12.698;2023-05-07T15:54:16;16.70;99.90